createdAt,value
2022-12-24T00:01:22.263Z,7.63
2022-12-24T00:03:49.927Z,5.55
2022-12-24T00:06:20.640Z,5.90
2022-12-24T00:08:48.061Z,5.55
2022-12-24T00:11:15.435Z,6.00
2022-12-24T00:13:42.734Z,6.40
2022-12-24T00:16:10.193Z,5.63
2022-12-24T00:18:41.697Z,4.32
2022-12-24T00:21:12.670Z,4.40
2022-12-24T00:23:40.989Z,4.68
2022-12-24T00:26:08.399Z,3.85
2022-12-24T00:28:35.636Z,3.72
2022-12-24T00:31:14.992Z,4.07
2022-12-24T00:33:42.800Z,4.07
2022-12-24T00:36:10.706Z,4.60
2022-12-24T00:38:38.605Z,4.53
2022-12-24T00:41:24.763Z,4.43
2022-12-24T00:43:55.152Z,5.10
2022-12-24T00:46:25.092Z,4.43
2022-12-24T00:48:53.313Z,4.35
2022-12-24T00:51:21.266Z,4.93
2022-12-24T00:53:51.115Z,4.60
2022-12-24T00:56:19.246Z,4.97
2022-12-24T00:58:46.838Z,4.97
2022-12-24T01:01:15.112Z,4.53
2022-12-24T01:03:42.748Z,4.40
2022-12-24T01:06:17.944Z,4.30
2022-12-24T01:08:45.844Z,4.38
2022-12-24T01:11:14.181Z,4.00
2022-12-24T01:13:41.809Z,4.28
2022-12-24T01:16:19.325Z,3.92
2022-12-24T01:18:46.920Z,3.95
2022-12-24T01:21:15.013Z,4.05
2022-12-24T01:23:45.474Z,4.10
2022-12-24T01:26:12.905Z,3.72
2022-12-24T01:28:41.161Z,3.35
2022-12-24T01:31:19.589Z,3.47
2022-12-24T01:33:49.394Z,2.97
2022-12-24T01:36:16.880Z,2.80
2022-12-24T01:38:44.244Z,2.80
2022-12-24T01:41:36.440Z,2.80
2022-12-24T01:44:37.031Z,2.80
2022-12-24T01:47:10.114Z,2.40
2022-12-24T01:49:47.962Z,2.50
2022-12-24T01:52:22.421Z,2.28
2022-12-24T01:55:12.325Z,2.10
2022-12-24T01:58:00.409Z,1.70
2022-12-24T02:00:27.837Z,2.53
2022-12-24T02:02:56.700Z,2.58
2022-12-24T02:05:42.661Z,2.35
2022-12-24T02:08:10.081Z,2.30
2022-12-24T02:10:37.450Z,2.33
2022-12-24T02:13:06.562Z,2.10
2022-12-24T02:15:58.041Z,2.63
2022-12-24T02:18:39.787Z,2.30
2022-12-24T02:21:18.461Z,2.53
2022-12-24T02:24:07.341Z,2.30
2022-12-24T02:27:05.317Z,1.92
2022-12-24T02:29:57.247Z,2.65
2022-12-24T02:32:27.466Z,2.10
2022-12-24T02:35:06.006Z,2.70
2022-12-24T02:37:41.548Z,2.50
2022-12-24T02:40:38.291Z,2.08
2022-12-24T02:43:11.748Z,2.08
2022-12-24T02:45:44.369Z,2.00
2022-12-24T02:48:14.131Z,2.28
2022-12-24T02:50:53.989Z,2.30
2022-12-24T02:53:21.377Z,2.55
2022-12-24T02:56:11.594Z,2.30
2022-12-24T02:58:48.214Z,2.60
2022-12-24T03:01:43.472Z,2.20
2022-12-24T03:04:41.006Z,2.40
2022-12-24T03:07:15.830Z,3.05
2022-12-24T03:09:56.089Z,2.70
2022-12-24T03:12:33.826Z,2.55
2022-12-24T03:15:02.864Z,2.40
2022-12-24T03:17:31.437Z,2.30
2022-12-24T03:19:58.770Z,2.67
2022-12-24T03:22:27.465Z,19.83
2022-12-24T03:24:55.593Z,8.55
2022-12-24T03:27:25.857Z,3.53
2022-12-24T03:29:56.589Z,6.90
2022-12-24T03:32:28.160Z,7.45
2022-12-24T03:34:56.443Z,2.35
2022-12-24T03:37:25.507Z,2.75
2022-12-24T03:39:53.017Z,2.13
2022-12-24T03:42:20.372Z,2.40
2022-12-24T03:44:47.748Z,3.60
2022-12-24T03:47:15.173Z,2.10
2022-12-24T03:49:42.478Z,2.35
2022-12-24T03:52:09.789Z,2.13
2022-12-24T03:54:37.259Z,1.92
2022-12-24T03:57:04.922Z,2.45
2022-12-24T03:59:32.295Z,1.80
2022-12-24T04:01:59.989Z,1.60
2022-12-24T04:04:30.684Z,2.10
2022-12-24T04:06:58.125Z,2.15
2022-12-24T04:09:25.468Z,2.20
2022-12-24T04:11:52.779Z,1.95
2022-12-24T04:14:20.496Z,2.00
2022-12-24T04:16:47.910Z,2.10
2022-12-24T04:19:15.317Z,2.03
2022-12-24T04:21:42.658Z,2.03
2022-12-24T04:24:10.108Z,2.22
2022-12-24T04:26:37.618Z,2.10
2022-12-24T04:29:04.930Z,2.20
2022-12-24T04:31:32.355Z,2.60
2022-12-24T04:33:59.678Z,2.20
2022-12-24T04:36:27.609Z,2.35
2022-12-24T04:38:54.983Z,2.30
2022-12-24T04:41:24.874Z,2.50
2022-12-24T04:43:56.198Z,2.60
2022-12-24T04:46:32.179Z,2.55
2022-12-24T04:48:59.837Z,2.90
2022-12-24T04:51:28.223Z,6.05
2022-12-24T04:53:56.682Z,3.03
2022-12-24T04:56:26.585Z,3.58
2022-12-24T04:58:54.738Z,2.70
2022-12-24T05:01:27.149Z,2.90
2022-12-24T05:03:55.061Z,2.80
2022-12-24T05:06:25.531Z,3.28
2022-12-24T05:08:56.010Z,3.28
2022-12-24T05:11:23.440Z,2.97
2022-12-24T05:13:51.148Z,3.08
2022-12-24T05:16:20.757Z,3.00
2022-12-24T05:18:48.221Z,3.13
2022-12-24T05:21:18.205Z,3.90
2022-12-24T05:24:04.159Z,3.50
2022-12-24T05:26:42.806Z,3.75
2022-12-24T05:29:14.733Z,4.35
2022-12-24T05:31:43.864Z,5.32
2022-12-24T05:34:11.975Z,5.72
2022-12-24T05:36:39.624Z,4.32
2022-12-24T05:39:13.430Z,3.38
2022-12-24T05:41:43.639Z,3.00
2022-12-24T05:44:10.918Z,3.17
2022-12-24T05:46:38.344Z,3.30
2022-12-24T05:49:08.577Z,11.50
2022-12-24T05:51:36.180Z,9.82
2022-12-24T05:54:03.717Z,9.43
2022-12-24T05:56:31.051Z,10.63
2022-12-24T05:58:58.681Z,23.10
2022-12-24T06:01:26.620Z,9.10
2022-12-24T06:03:54.261Z,7.57
2022-12-24T06:06:24.087Z,8.20
2022-12-24T06:08:53.475Z,8.63
2022-12-24T06:11:23.766Z,7.97
2022-12-24T06:13:52.465Z,6.70
2022-12-24T06:16:21.599Z,4.57
2022-12-24T06:18:50.161Z,3.90
2022-12-24T06:21:18.184Z,4.07
2022-12-24T06:23:46.627Z,3.15
2022-12-24T06:26:17.292Z,3.50
2022-12-24T06:28:45.248Z,2.90
2022-12-24T06:31:15.205Z,3.22
2022-12-24T06:33:46.043Z,2.92
2022-12-24T06:36:20.406Z,2.90
2022-12-24T06:38:48.538Z,2.88
2022-12-24T06:41:17.419Z,3.30
2022-12-24T06:43:51.047Z,4.93
2022-12-24T06:46:20.084Z,5.53
2022-12-24T06:48:48.369Z,4.30
2022-12-24T06:51:20.090Z,4.05
2022-12-24T06:53:50.808Z,3.75
2022-12-24T06:56:20.915Z,3.08
2022-12-24T06:58:48.889Z,3.20
2022-12-24T07:01:19.545Z,5.05
2022-12-24T07:03:47.995Z,4.28
2022-12-24T07:06:20.314Z,4.07
2022-12-24T07:08:48.196Z,3.70
2022-12-24T07:11:17.629Z,3.92
2022-12-24T07:13:46.175Z,4.20
2022-12-24T07:16:13.649Z,5.88
2022-12-24T07:18:41.629Z,6.50
2022-12-24T07:21:09.337Z,6.75
2022-12-24T07:23:37.103Z,9.90
2022-12-24T07:26:08.921Z,7.80
2022-12-24T07:28:36.347Z,6.97
2022-12-24T07:31:03.747Z,4.75
2022-12-24T07:33:31.294Z,4.88
2022-12-24T07:36:00.347Z,5.10
2022-12-24T07:38:28.549Z,5.40
2022-12-24T07:40:56.560Z,5.60
2022-12-24T07:43:24.440Z,5.45
2022-12-24T07:45:54.553Z,6.18
2022-12-24T07:48:22.032Z,5.65
2022-12-24T07:50:52.950Z,5.35
2022-12-24T07:53:20.799Z,4.53
2022-12-24T07:55:48.100Z,6.72
2022-12-24T07:58:15.449Z,5.78
2022-12-24T08:00:43.108Z,5.60
2022-12-24T08:03:17.969Z,5.43
2022-12-24T08:05:53.073Z,5.40
2022-12-24T08:08:21.746Z,5.80
2022-12-24T08:10:49.290Z,5.82
2022-12-24T08:13:17.303Z,5.60
2022-12-24T08:15:48.162Z,5.82
2022-12-24T08:18:15.682Z,5.65
2022-12-24T08:20:43.037Z,6.10
2022-12-24T08:23:10.706Z,6.10
2022-12-24T08:25:38.871Z,7.25
2022-12-24T08:28:07.670Z,6.68
2022-12-24T08:30:35.421Z,7.03
2022-12-24T08:33:02.939Z,6.22
2022-12-24T08:35:30.427Z,5.57
2022-12-24T08:37:58.215Z,4.97
2022-12-24T08:40:25.657Z,4.32
2022-12-24T08:42:53.357Z,5.00
2022-12-24T08:45:21.095Z,7.43
2022-12-24T08:47:51.323Z,6.40
2022-12-24T08:50:21.695Z,6.88
2022-12-24T08:52:49.034Z,6.57
2022-12-24T08:55:16.797Z,6.15
2022-12-24T08:57:44.127Z,5.70
2022-12-24T09:00:13.268Z,8.10
2022-12-24T09:02:40.804Z,5.85
2022-12-24T09:05:08.596Z,5.05
2022-12-24T09:07:36.255Z,5.65
2022-12-24T09:10:04.348Z,10.15
2022-12-24T09:12:31.638Z,7.63
2022-12-24T09:15:03.427Z,5.75
2022-12-24T09:17:32.104Z,4.25
2022-12-24T09:19:59.370Z,4.28
2022-12-24T09:22:26.964Z,3.97
2022-12-24T09:24:54.966Z,4.32
2022-12-24T09:27:22.346Z,2.40
2022-12-24T09:29:49.653Z,2.80
2022-12-24T09:32:17.458Z,5.88
2022-12-24T09:34:44.942Z,6.60
2022-12-24T09:37:12.370Z,7.13
2022-12-24T09:39:39.749Z,6.63
2022-12-24T09:42:13.342Z,9.55
2022-12-24T09:44:43.736Z,9.40
2022-12-24T09:47:19.878Z,7.97
2022-12-24T09:49:51.393Z,7.90
2022-12-24T09:52:38.899Z,7.65
2022-12-24T09:55:30.231Z,12.45
2022-12-24T09:57:59.680Z,9.25
2022-12-24T10:00:33.889Z,8.18
2022-12-24T10:03:01.270Z,8.30
2022-12-24T10:05:44.751Z,7.07
2022-12-24T10:08:20.766Z,6.88
2022-12-24T10:10:54.735Z,4.95
2022-12-24T10:13:43.171Z,4.80
2022-12-24T10:16:41.370Z,4.38
2022-12-24T10:19:40.630Z,4.15
2022-12-24T10:22:13.752Z,3.58
2022-12-24T10:24:54.287Z,4.75
2022-12-24T10:27:26.806Z,4.88
2022-12-24T10:30:01.834Z,6.72
2022-12-24T10:32:34.918Z,6.05
2022-12-24T10:35:23.301Z,4.88
2022-12-24T10:37:52.839Z,5.53
2022-12-24T10:40:40.479Z,4.30
2022-12-24T10:43:15.843Z,4.40
2022-12-24T10:46:12.565Z,4.40
2022-12-24T10:48:58.251Z,5.80
2022-12-24T10:51:52.809Z,5.10
2022-12-24T10:54:27.342Z,5.00
2022-12-24T10:57:03.905Z,5.47
2022-12-24T10:59:34.737Z,5.88
2022-12-24T11:02:02.424Z,6.03
2022-12-24T11:04:32.626Z,5.53
2022-12-24T11:07:04.333Z,5.30
2022-12-24T11:09:39.795Z,5.03
2022-12-24T11:12:19.186Z,4.32
2022-12-24T11:14:46.899Z,7.45
2022-12-24T11:17:23.154Z,5.40
2022-12-24T11:19:51.315Z,4.40
2022-12-24T11:22:21.639Z,4.28
2022-12-24T11:24:57.831Z,3.00
2022-12-24T11:27:33.093Z,3.15
2022-12-24T11:30:15.732Z,4.03
2022-12-24T11:32:45.069Z,2.40
2022-12-24T11:35:22.353Z,2.90
2022-12-24T11:38:10.707Z,2.10
2022-12-24T11:40:45.814Z,1.95
2022-12-24T11:43:25.549Z,3.85
2022-12-24T11:45:59.704Z,3.30
2022-12-24T11:48:35.362Z,3.53
2022-12-24T11:51:24.810Z,3.13
2022-12-24T11:54:19.997Z,3.17
2022-12-24T11:57:05.217Z,3.50
2022-12-24T11:59:44.258Z,2.80
2022-12-24T12:02:52.621Z,3.90
2022-12-24T12:05:25.627Z,2.95
2022-12-24T12:08:06.849Z,2.83
2022-12-24T12:10:42.340Z,3.05
2022-12-24T12:13:34.739Z,2.80
2022-12-24T12:16:51.486Z,2.40
2022-12-24T12:19:27.684Z,2.45
2022-12-24T12:21:58.377Z,6.40
2022-12-24T12:24:33.674Z,3.42
2022-12-24T12:27:21.548Z,3.22
2022-12-24T12:30:03.814Z,2.53
2022-12-24T12:33:10.025Z,2.65
2022-12-24T12:35:44.143Z,2.17
2022-12-24T12:38:23.350Z,2.95
2022-12-24T12:41:18.799Z,2.70
2022-12-24T12:44:28.463Z,2.50
2022-12-24T12:47:31.106Z,2.47
2022-12-24T12:50:10.981Z,2.10
2022-12-24T12:52:57.390Z,1.60
2022-12-24T12:56:06.992Z,1.77
2022-12-24T12:59:05.404Z,2.10
2022-12-24T13:02:08.950Z,3.25
2022-12-24T13:05:08.075Z,1.90
2022-12-24T13:07:59.027Z,1.75
2022-12-24T13:10:57.573Z,1.83
2022-12-24T13:13:52.110Z,1.70
2022-12-24T13:16:42.573Z,1.90
2022-12-24T13:19:56.025Z,1.70
2022-12-24T13:22:32.497Z,1.80
2022-12-24T13:25:09.268Z,2.45
2022-12-24T13:27:40.029Z,4.20
2022-12-24T13:30:55.347Z,1.98
2022-12-24T13:33:44.632Z,1.93
2022-12-24T13:36:23.353Z,2.40
2022-12-24T13:38:57.550Z,2.50
2022-12-24T13:41:39.226Z,2.63
2022-12-24T13:44:07.891Z,2.97
2022-12-24T13:47:07.746Z,2.53
2022-12-24T13:49:39.995Z,4.18
2022-12-24T13:52:16.441Z,3.47
2022-12-24T13:55:13.128Z,5.55
2022-12-24T13:58:00.971Z,6.28
2022-12-24T14:01:07.254Z,2.33
2022-12-24T14:04:02.960Z,1.63
2022-12-24T14:07:10.754Z,1.80
2022-12-24T14:13:52.305Z,1.50
2022-12-24T14:17:24.780Z,2.40
2022-12-24T14:20:24.335Z,2.95
2022-12-24T14:23:57.293Z,2.47
2022-12-24T14:33:07.217Z,2.75
2022-12-24T14:35:42.903Z,3.30
2022-12-24T14:38:53.968Z,2.97
2022-12-24T14:46:13.520Z,19.80
2022-12-24T14:49:38.975Z,2.53
2022-12-24T14:56:58.765Z,4.78
2022-12-24T14:57:35.568Z,3.45
2022-12-24T15:00:27.382Z,2.10
2022-12-24T15:03:36.361Z,2.60
2022-12-24T15:06:31.912Z,2.03
2022-12-24T15:09:44.839Z,1.80
2022-12-24T15:16:17.028Z,7.47
2022-12-24T15:23:04.004Z,10.18
2022-12-24T15:27:09.733Z,4.40
2022-12-24T15:30:39.340Z,3.83
2022-12-24T15:33:07.526Z,6.38
2022-12-24T15:39:31.989Z,5.60
2022-12-24T15:42:14.199Z,10.98
2022-12-24T15:47:21.338Z,4.93
2022-12-24T15:49:52.501Z,4.35
2022-12-24T15:52:24.468Z,3.60
2022-12-24T15:54:57.711Z,5.95
2022-12-24T15:57:34.138Z,3.53
2022-12-24T16:00:03.203Z,3.85
2022-12-24T16:02:45.985Z,4.78
2022-12-24T16:05:27.808Z,5.60
2022-12-24T16:08:17.072Z,4.75
2022-12-24T16:10:47.526Z,9.65
2022-12-24T16:13:29.337Z,20.75
2022-12-24T16:15:57.969Z,17.60
2022-12-24T16:18:28.402Z,13.10
2022-12-24T16:20:57.024Z,7.30
2022-12-24T16:23:29.069Z,5.05
2022-12-24T16:28:26.853Z,4.72
2022-12-24T16:30:55.917Z,3.88
2022-12-24T16:33:23.979Z,5.50
2022-12-24T16:35:51.613Z,4.28
2022-12-24T16:38:19.035Z,4.28
2022-12-24T16:40:46.300Z,4.90
2022-12-24T16:43:32.460Z,4.18
2022-12-24T16:46:05.227Z,4.47
2022-12-24T16:48:36.453Z,5.63
2022-12-24T16:51:03.970Z,5.10
2022-12-24T16:53:31.328Z,5.72
2022-12-24T16:55:58.890Z,4.70
2022-12-24T16:58:28.610Z,6.30
2022-12-24T17:00:56.397Z,6.70
2022-12-24T17:03:23.882Z,6.03
2022-12-24T17:05:51.454Z,5.65
2022-12-24T17:08:18.988Z,6.15
2022-12-24T17:10:52.607Z,6.47
2022-12-24T17:13:20.024Z,8.55
2022-12-24T17:15:48.969Z,6.53
2022-12-24T17:18:20.779Z,7.13
2022-12-24T17:21:01.336Z,6.25
2022-12-24T17:23:29.077Z,5.60
2022-12-24T17:25:56.521Z,6.82
2022-12-24T17:28:26.459Z,6.03
2022-12-24T17:30:54.290Z,6.95
2022-12-24T17:33:23.330Z,6.53
2022-12-24T17:35:52.445Z,6.47
2022-12-24T17:38:19.783Z,6.95
2022-12-24T17:40:47.307Z,6.88
2022-12-24T17:43:14.829Z,8.07
2022-12-24T17:45:42.657Z,7.75
2022-12-24T17:48:10.457Z,8.00
2022-12-24T17:50:43.444Z,10.52
2022-12-24T17:53:11.618Z,12.75
2022-12-24T17:55:43.306Z,13.68
2022-12-24T17:58:12.347Z,12.50
2022-12-24T18:00:42.670Z,10.00
2022-12-24T18:03:14.622Z,8.80
2022-12-24T18:05:43.690Z,8.57
2022-12-24T18:08:15.150Z,8.07
2022-12-24T18:10:43.675Z,8.13
2022-12-24T18:13:17.358Z,9.18
2022-12-24T18:15:47.393Z,11.35
2022-12-24T18:18:15.084Z,12.02
2022-12-24T18:20:46.507Z,10.82
2022-12-24T18:23:14.759Z,11.55
2022-12-24T18:25:44.417Z,11.82
2022-12-24T18:28:11.966Z,10.45
2022-12-24T18:30:39.464Z,10.32
2022-12-24T18:33:07.000Z,11.05
2022-12-24T18:35:34.428Z,10.75
2022-12-24T18:38:01.794Z,9.98
2022-12-24T18:40:30.456Z,10.13
2022-12-24T18:43:03.563Z,11.00
2022-12-24T18:45:34.623Z,11.40
2022-12-24T18:48:07.087Z,10.50
2022-12-24T18:53:13.407Z,11.05
2022-12-24T18:55:43.110Z,10.30
2022-12-24T18:58:13.342Z,10.70
2022-12-24T19:00:43.803Z,9.63
2022-12-24T19:03:14.736Z,10.25
2022-12-24T19:05:46.062Z,10.65
2022-12-24T19:08:47.331Z,9.68
2022-12-24T19:11:05.471Z,10.52
2022-12-24T19:13:38.438Z,9.98
2022-12-24T19:16:13.483Z,11.77
2022-12-24T19:18:41.647Z,10.98
2022-12-24T19:21:19.286Z,12.85
2022-12-24T19:23:48.247Z,14.65
2022-12-24T19:26:17.946Z,14.90
2022-12-24T19:28:46.498Z,17.75
2022-12-24T19:31:20.154Z,16.20
2022-12-24T19:33:55.112Z,16.73
2022-12-24T19:36:30.351Z,15.57
2022-12-24T19:39:03.036Z,13.45
2022-12-24T19:41:34.229Z,14.02
2022-12-24T19:44:04.705Z,13.63
2022-12-24T19:46:44.023Z,14.43
2022-12-24T19:49:13.522Z,15.25
2022-12-24T19:51:45.709Z,15.73
2022-12-24T19:54:26.667Z,15.95
2022-12-24T19:57:20.595Z,16.52
2022-12-24T20:02:54.527Z,16.00
2022-12-24T20:05:26.973Z,16.23
2022-12-24T20:17:21.762Z,20.10
2022-12-24T20:19:49.556Z,21.08
2022-12-24T20:22:17.091Z,18.50
2022-12-24T20:24:44.754Z,18.35
2022-12-24T20:27:12.324Z,18.52
2022-12-24T20:29:49.968Z,18.67
2022-12-24T20:32:17.682Z,19.92
2022-12-24T20:34:45.588Z,18.42
2022-12-24T20:37:13.232Z,15.15
2022-12-24T20:39:41.720Z,16.48
2022-12-24T20:42:11.218Z,16.75
2022-12-24T20:44:40.264Z,16.42
2022-12-24T20:47:11.411Z,14.95
2022-12-24T20:49:54.035Z,15.80
2022-12-24T20:52:50.275Z,13.80
2022-12-24T20:55:17.935Z,13.55
2022-12-24T20:57:46.814Z,14.23
2022-12-24T21:00:15.263Z,14.50
2022-12-24T21:02:49.539Z,15.38
2022-12-24T21:05:20.668Z,15.70
2022-12-24T21:07:53.909Z,14.27
2022-12-24T21:10:21.546Z,14.18
2022-12-24T21:12:49.601Z,13.93
2022-12-24T21:15:25.959Z,12.73
2022-12-24T21:17:55.988Z,12.68
2022-12-24T21:20:30.852Z,12.95
2022-12-24T21:23:01.390Z,12.95
2022-12-24T21:25:29.238Z,13.07
2022-12-24T21:27:56.950Z,13.73
2022-12-24T21:30:24.963Z,12.02
2022-12-24T21:32:52.564Z,12.50
2022-12-24T21:35:20.137Z,13.05
2022-12-24T21:37:47.730Z,11.88
2022-12-24T21:40:15.268Z,12.48
2022-12-24T21:42:42.881Z,13.02
2022-12-24T21:45:13.139Z,12.77
2022-12-24T21:47:44.800Z,12.85
2022-12-24T21:50:32.513Z,12.50
2022-12-24T21:53:18.934Z,11.60
2022-12-24T21:55:49.187Z,12.35
2022-12-24T21:58:17.941Z,12.57
2022-12-24T22:00:45.398Z,13.35
2022-12-24T22:03:13.087Z,11.88
2022-12-24T22:05:40.813Z,12.48
2022-12-24T22:08:28.111Z,13.02
2022-12-24T22:11:15.102Z,13.23
2022-12-24T22:13:43.036Z,14.32
2022-12-24T22:16:13.178Z,13.95
2022-12-24T22:18:41.247Z,14.00
2022-12-24T22:21:08.883Z,12.38
2022-12-24T22:23:42.251Z,12.60
2022-12-24T22:26:15.587Z,11.30
2022-12-24T22:28:43.262Z,10.68
2022-12-24T22:31:19.055Z,10.63
2022-12-24T22:33:47.132Z,10.13
2022-12-24T22:36:14.985Z,10.25
2022-12-24T22:38:44.962Z,9.75
2022-12-24T22:41:21.183Z,10.55
2022-12-24T22:43:50.047Z,9.50
2022-12-24T22:46:18.495Z,9.25
2022-12-24T22:48:46.553Z,8.15
2022-12-24T22:51:17.680Z,9.00
2022-12-24T22:53:45.703Z,9.27
2022-12-24T22:56:17.055Z,8.65
2022-12-24T22:58:45.212Z,7.73
2022-12-24T23:01:14.240Z,8.35
2022-12-24T23:03:42.445Z,8.45
2022-12-24T23:06:10.385Z,7.97
2022-12-24T23:08:38.688Z,8.45
2022-12-24T23:11:09.942Z,8.40
2022-12-24T23:14:01.278Z,8.93
2022-12-24T23:16:30.206Z,9.13
2022-12-24T23:18:59.443Z,8.15
2022-12-24T23:21:34.624Z,8.48
2022-12-24T23:24:03.595Z,7.72
2022-12-24T23:26:31.645Z,7.90
2022-12-24T23:28:59.544Z,7.82
2022-12-24T23:31:35.495Z,7.25
2022-12-24T23:34:18.294Z,7.20
2022-12-24T23:36:52.473Z,7.13
2022-12-24T23:39:24.766Z,7.13
2022-12-24T23:47:35.600Z,7.63
2022-12-24T23:50:08.758Z,6.90
2022-12-24T23:52:39.599Z,6.80
2022-12-24T23:55:08.789Z,6.43
2022-12-24T23:57:37.433Z,6.68
